Inukjuak Airport
CYPH : now visible

Airfield :











YOU CAN JOIN US ON...

 
LOGIN :

Register | Disclaimer

   EN    FR    IT 

 









Legend :    VFR   Marginal VFR   IFR   Intensive IFR   Very Intensive IFR
Visi :
Ceiling :
>= 8 km
>= 3000ft
5 to 8 km
1000 to 3000 ft
1500m to 5 km
500 to 1000 ft
800 to 1500m
200 to 500 ft
< 800m
< 200 ft
Symbols :   Thunderstorms  Fog  Heavy snow  Heavy precipitations  Wind > 20 kt






- Airport Elevation : 83 ft
- IATA code : YPH


CYPH - Inukjuak

CURRENT METAR :
  • 260834Z AUTO 20015G22KT 9SM -SN FEW010 SCT014 SCT021 OVC030 M02/M05 A2981 RMK SLP099

EXPIRED METARs :
  • 260822Z AUTO 20013KT 6SM -SN SCT010 BKN016 OVC023 M02/M05 A2981 RMK SLP100
  • 260806Z AUTO 20009KT 2 1/2SM -SN FEW010 SCT013 BKN019 OVC036 M03/M04 A2983 RMK SLP102
  • 260802Z AUTO 20010KT 4SM -SN SCT012 SCT019 BKN024 OVC036 M03/M05 A2983 RMK SLP103
  • 260748Z AUTO 19010KT 8SM -SN FEW018 BKN023 OVC036 M03/M05 A2983 RMK SLP103
  • 260734Z AUTO 20012KT 9SM -SN BKN023 BKN029 OVC036 M03/M05 A2984 RMK SLP106
  • 260700Z AUTO 20010G17KT 9SM -SN OVC027 M03/M06 A2984 RMK SLP106
  • 260654Z AUTO 21014KT 9SM -SN SCT023 OVC029 M03/M07 A2984 RMK SLP106
  • 260649Z AUTO 20010KT 9SM -SN OVC026 M03/M06 A2984 RMK SLP107
  • 260603Z AUTO 14007KT 7SM -SN FEW011 BKN029 OVC035 M06/M07 A2984 RMK SLP108
  • 260553Z AUTO 16008KT 4SM -SN FEW009 SCT017 BKN027 OVC035 M06/M07 A2985 RMK SLP109
  • 260552Z AUTO 15008KT 4SM -SN FEW009 BKN020 BKN025 OVC035 M06/M07 A2985 RMK SLP109

TAF AMD TAF CYPH
Valid from the 26 at 08:00 until the 26 at 18:00 UTC


260829Z 2608/2618 20010G20KT 6SM -SN SCT010 OVC020
TEMPO 2608/2611 2SM -SN OVC010
BECMG 2609/2611 18015G25KT
FM261100 17022G32KT 4SM -SN BLSN OVC012
TEMPO 2611/2614 1SM -SN BLSN VV010
FM261400 18025G35KT 11/2SM -SN BLSN VV010
TEMPO 2614/2618 3/4SM -SHSN BLSN VV006 RMK FCST BASED ON AUTO OBS. NXT FCST BY 261200Z
CZUL FIR / North America



MET'MAP, your aeronautical weather chart ! - Copyright ORBIFLY December 2007 - Disclaimer

ORBIFLY MET'MAP TEAM :

Programming & Development : Alexandra Zaïnal
Concept & original design : Baudouin d'Aumeries
Assistance for programming : Marc-Olivier Méhu
Technical & hardware support : Manuel Goepfert

Contact : metmap@orbifly.com




SOURCES & CREDITS :

   NOAA       Earth
Advisory